sensor_id;sensor_type;location;lat;lon;timestamp;temperature;humidity
24744;DHT22;12844;52.110;5.548;2023-02-01T00:00:10;15.90;52.60
24744;DHT22;12844;52.110;5.548;2023-02-01T00:02:35;15.90;52.60
24744;DHT22;12844;52.110;5.548;2023-02-01T00:05:05;15.90;52.60
24744;DHT22;12844;52.110;5.548;2023-02-01T00:07:31;15.90;52.50
24744;DHT22;12844;52.110;5.548;2023-02-01T00:09:56;15.90;52.50
24744;DHT22;12844;52.110;5.548;2023-02-01T00:12:22;15.80;52.50
24744;DHT22;12844;52.110;5.548;2023-02-01T00:14:47;15.80;52.50
24744;DHT22;12844;52.110;5.548;2023-02-01T00:17:13;15.80;52.50
24744;DHT22;12844;52.110;5.548;2023-02-01T00:19:39;15.80;52.50
24744;DHT22;12844;52.110;5.548;2023-02-01T00:22:04;15.70;52.50
24744;DHT22;12844;52.110;5.548;2023-02-01T00:24:30;15.70;52.40
24744;DHT22;12844;52.110;5.548;2023-02-01T00:26:56;15.70;52.40
24744;DHT22;12844;52.110;5.548;2023-02-01T00:29:22;15.70;52.50
24744;DHT22;12844;52.110;5.548;2023-02-01T00:31:50;15.70;52.40
24744;DHT22;12844;52.110;5.548;2023-02-01T00:34:16;15.70;52.40
24744;DHT22;12844;52.110;5.548;2023-02-01T00:36:43;15.70;52.40
24744;DHT22;12844;52.110;5.548;2023-02-01T00:39:10;15.70;52.40
24744;DHT22;12844;52.110;5.548;2023-02-01T00:41:35;15.70;52.40
24744;DHT22;12844;52.110;5.548;2023-02-01T00:44:01;15.70;52.40
24744;DHT22;12844;52.110;5.548;2023-02-01T00:46:27;15.60;52.40
24744;DHT22;12844;52.110;5.548;2023-02-01T00:48:53;15.60;52.40
24744;DHT22;12844;52.110;5.548;2023-02-01T00:51:22;15.60;52.40
24744;DHT22;12844;52.110;5.548;2023-02-01T00:53:48;15.60;52.40
24744;DHT22;12844;52.110;5.548;2023-02-01T00:56:14;15.60;52.40
24744;DHT22;12844;52.110;5.548;2023-02-01T00:58:40;15.60;52.40
24744;DHT22;12844;52.110;5.548;2023-02-01T01:01:10;15.60;52.40
24744;DHT22;12844;52.110;5.548;2023-02-01T01:03:39;15.60;52.40
24744;DHT22;12844;52.110;5.548;2023-02-01T01:06:09;15.60;52.40
24744;DHT22;12844;52.110;5.548;2023-02-01T01:08:36;15.60;52.40
24744;DHT22;12844;52.110;5.548;2023-02-01T01:11:11;15.50;52.40
24744;DHT22;12844;52.110;5.548;2023-02-01T01:13:38;15.50;52.30
24744;DHT22;12844;52.110;5.548;2023-02-01T01:16:05;15.50;52.30
24744;DHT22;12844;52.110;5.548;2023-02-01T01:18:32;15.50;52.40
24744;DHT22;12844;52.110;5.548;2023-02-01T01:20:59;15.50;52.40
24744;DHT22;12844;52.110;5.548;2023-02-01T01:26:00;15.50;52.30
24744;DHT22;12844;52.110;5.548;2023-02-01T01:28:26;15.50;52.30
24744;DHT22;12844;52.110;5.548;2023-02-01T01:30:51;15.50;52.30
24744;DHT22;12844;52.110;5.548;2023-02-01T01:33:17;15.50;52.30
24744;DHT22;12844;52.110;5.548;2023-02-01T01:35:42;15.40;52.30
24744;DHT22;12844;52.110;5.548;2023-02-01T01:38:09;15.40;52.30
24744;DHT22;12844;52.110;5.548;2023-02-01T01:40:35;15.50;52.30
24744;DHT22;12844;52.110;5.548;2023-02-01T01:43:01;15.40;52.30
24744;DHT22;12844;52.110;5.548;2023-02-01T02:25:21;15.40;52.20
24744;DHT22;12844;52.110;5.548;2023-02-01T02:30:40;15.30;52.40
24744;DHT22;12844;52.110;5.548;2023-02-01T02:38:47;15.30;52.30
24744;DHT22;12844;52.110;5.548;2023-02-01T02:41:31;15.30;52.20
24744;DHT22;12844;52.110;5.548;2023-02-01T02:44:53;15.30;52.20
24744;DHT22;12844;52.110;5.548;2023-02-01T02:47:36;15.20;52.20
24744;DHT22;12844;52.110;5.548;2023-02-01T02:50:27;15.20;52.30
24744;DHT22;12844;52.110;5.548;2023-02-01T02:53:19;15.20;52.40
24744;DHT22;12844;52.110;5.548;2023-02-01T02:56:06;15.20;52.30
24744;DHT22;12844;52.110;5.548;2023-02-01T02:58:52;15.20;52.30
24744;DHT22;12844;52.110;5.548;2023-02-01T03:01:38;15.20;52.40
24744;DHT22;12844;52.110;5.548;2023-02-01T03:04:22;15.30;52.40
24744;DHT22;12844;52.110;5.548;2023-02-01T03:06:49;15.30;52.40
24744;DHT22;12844;52.110;5.548;2023-02-01T03:09:31;15.20;52.30
24744;DHT22;12844;52.110;5.548;2023-02-01T03:12:01;15.30;52.30
24744;DHT22;12844;52.110;5.548;2023-02-01T03:14:51;15.30;52.20
24744;DHT22;12844;52.110;5.548;2023-02-01T03:17:22;15.30;52.30
24744;DHT22;12844;52.110;5.548;2023-02-01T03:19:52;15.30;52.20
24744;DHT22;12844;52.110;5.548;2023-02-01T03:22:23;15.40;52.20
24744;DHT22;12844;52.110;5.548;2023-02-01T03:24:55;15.40;52.10
24744;DHT22;12844;52.110;5.548;2023-02-01T03:27:34;15.40;52.10
24744;DHT22;12844;52.110;5.548;2023-02-01T03:30:16;15.30;52.10
24744;DHT22;12844;52.110;5.548;2023-02-01T03:32:46;15.30;52.20
24744;DHT22;12844;52.110;5.548;2023-02-01T03:35:47;15.30;52.20
24744;DHT22;12844;52.110;5.548;2023-02-01T03:38:41;15.30;52.20
24744;DHT22;12844;52.110;5.548;2023-02-01T03:46:46;15.30;52.30
24744;DHT22;12844;52.110;5.548;2023-02-01T03:49:35;15.30;52.30
24744;DHT22;12844;52.110;5.548;2023-02-01T03:52:03;15.30;52.30
24744;DHT22;12844;52.110;5.548;2023-02-01T03:54:30;15.30;52.30
24744;DHT22;12844;52.110;5.548;2023-02-01T03:56:59;15.30;52.30
24744;DHT22;12844;52.110;5.548;2023-02-01T03:59:26;15.30;52.30
24744;DHT22;12844;52.110;5.548;2023-02-01T04:01:51;15.30;52.30
24744;DHT22;12844;52.110;5.548;2023-02-01T04:04:18;15.30;52.30
24744;DHT22;12844;52.110;5.548;2023-02-01T04:06:49;15.30;52.20
24744;DHT22;12844;52.110;5.548;2023-02-01T04:09:16;15.30;52.20
24744;DHT22;12844;52.110;5.548;2023-02-01T04:11:41;15.30;52.20
24744;DHT22;12844;52.110;5.548;2023-02-01T04:14:07;15.30;52.20
24744;DHT22;12844;52.110;5.548;2023-02-01T04:16:33;15.30;52.20
24744;DHT22;12844;52.110;5.548;2023-02-01T04:18:59;15.30;52.30
24744;DHT22;12844;52.110;5.548;2023-02-01T04:21:25;15.30;52.30
24744;DHT22;12844;52.110;5.548;2023-02-01T04:23:51;15.30;52.30
24744;DHT22;12844;52.110;5.548;2023-02-01T04:26:17;15.30;52.30
24744;DHT22;12844;52.110;5.548;2023-02-01T04:28:44;15.30;52.30
24744;DHT22;12844;52.110;5.548;2023-02-01T04:31:09;15.30;52.20
24744;DHT22;12844;52.110;5.548;2023-02-01T04:33:35;15.30;52.20
24744;DHT22;12844;52.110;5.548;2023-02-01T04:36:00;15.30;52.10
24744;DHT22;12844;52.110;5.548;2023-02-01T04:38:26;15.30;52.20
24744;DHT22;12844;52.110;5.548;2023-02-01T04:40:54;15.30;52.10
24744;DHT22;12844;52.110;5.548;2023-02-01T04:43:20;15.30;52.20
24744;DHT22;12844;52.110;5.548;2023-02-01T04:45:49;15.30;52.20
24744;DHT22;12844;52.110;5.548;2023-02-01T04:48:17;15.30;52.10
24744;DHT22;12844;52.110;5.548;2023-02-01T04:50:43;15.30;52.30
24744;DHT22;12844;52.110;5.548;2023-02-01T04:53:13;15.30;52.30
24744;DHT22;12844;52.110;5.548;2023-02-01T04:55:39;15.30;52.20
24744;DHT22;12844;52.110;5.548;2023-02-01T04:58:05;15.30;52.10
24744;DHT22;12844;52.110;5.548;2023-02-01T05:00:30;15.30;52.10
24744;DHT22;12844;52.110;5.548;2023-02-01T05:02:56;15.30;52.10
24744;DHT22;12844;52.110;5.548;2023-02-01T05:05:21;15.30;52.10
24744;DHT22;12844;52.110;5.548;2023-02-01T05:07:47;15.30;52.10
24744;DHT22;12844;52.110;5.548;2023-02-01T05:10:12;15.30;52.20
24744;DHT22;12844;52.110;5.548;2023-02-01T05:12:38;15.30;52.20
24744;DHT22;12844;52.110;5.548;2023-02-01T05:15:22;15.40;52.20
24744;DHT22;12844;52.110;5.548;2023-02-01T05:17:47;15.30;52.20
24744;DHT22;12844;52.110;5.548;2023-02-01T05:20:13;15.30;52.10
24744;DHT22;12844;52.110;5.548;2023-02-01T05:22:39;15.30;52.20
24744;DHT22;12844;52.110;5.548;2023-02-01T05:25:04;15.30;52.10
24744;DHT22;12844;52.110;5.548;2023-02-01T05:27:30;15.30;52.10
24744;DHT22;12844;52.110;5.548;2023-02-01T05:29:56;15.30;52.10
24744;DHT22;12844;52.110;5.548;2023-02-01T05:32:22;15.30;52.20
24744;DHT22;12844;52.110;5.548;2023-02-01T05:34:47;15.30;52.20
24744;DHT22;12844;52.110;5.548;2023-02-01T05:37:13;15.30;52.10
24744;DHT22;12844;52.110;5.548;2023-02-01T05:39:38;15.30;52.10
24744;DHT22;12844;52.110;5.548;2023-02-01T05:42:04;15.30;52.10
24744;DHT22;12844;52.110;5.548;2023-02-01T05:44:29;15.30;52.80
24744;DHT22;12844;52.110;5.548;2023-02-01T05:46:55;15.30;52.00
24744;DHT22;12844;52.110;5.548;2023-02-01T05:49:20;15.30;52.10
24744;DHT22;12844;52.110;5.548;2023-02-01T05:51:46;15.30;52.00
24744;DHT22;12844;52.110;5.548;2023-02-01T05:54:11;15.40;52.10
24744;DHT22;12844;52.110;5.548;2023-02-01T05:56:37;15.30;52.00
24744;DHT22;12844;52.110;5.548;2023-02-01T05:59:02;15.40;52.10
24744;DHT22;12844;52.110;5.548;2023-02-01T06:01:28;15.30;52.00
24744;DHT22;12844;52.110;5.548;2023-02-01T06:03:53;15.30;52.10
24744;DHT22;12844;52.110;5.548;2023-02-01T06:06:19;15.40;52.10
24744;DHT22;12844;52.110;5.548;2023-02-01T06:08:45;15.40;52.20
24744;DHT22;12844;52.110;5.548;2023-02-01T06:11:11;15.30;52.00
24744;DHT22;12844;52.110;5.548;2023-02-01T06:13:36;15.30;52.00
24744;DHT22;12844;52.110;5.548;2023-02-01T06:16:04;15.30;52.10
24744;DHT22;12844;52.110;5.548;2023-02-01T06:18:32;15.30;52.00
24744;DHT22;12844;52.110;5.548;2023-02-01T06:20:59;15.30;52.00
24744;DHT22;12844;52.110;5.548;2023-02-01T06:23:26;15.40;52.10
24744;DHT22;12844;52.110;5.548;2023-02-01T06:25:52;15.30;52.00
24744;DHT22;12844;52.110;5.548;2023-02-01T06:28:23;15.30;52.00
24744;DHT22;12844;52.110;5.548;2023-02-01T06:30:49;15.30;52.00
24744;DHT22;12844;52.110;5.548;2023-02-01T06:33:14;15.30;52.00
24744;DHT22;12844;52.110;5.548;2023-02-01T06:35:43;15.30;52.00
24744;DHT22;12844;52.110;5.548;2023-02-01T06:38:13;15.30;52.00
24744;DHT22;12844;52.110;5.548;2023-02-01T06:40:39;15.30;52.00
24744;DHT22;12844;52.110;5.548;2023-02-01T06:43:07;15.30;52.00
24744;DHT22;12844;52.110;5.548;2023-02-01T06:45:32;15.30;52.00
24744;DHT22;12844;52.110;5.548;2023-02-01T06:47:59;15.30;51.90
24744;DHT22;12844;52.110;5.548;2023-02-01T06:50:26;15.30;52.00
24744;DHT22;12844;52.110;5.548;2023-02-01T06:52:51;15.30;52.00
24744;DHT22;12844;52.110;5.548;2023-02-01T06:55:17;15.30;52.00
24744;DHT22;12844;52.110;5.548;2023-02-01T06:57:42;15.30;52.00
24744;DHT22;12844;52.110;5.548;2023-02-01T07:00:08;15.30;52.00
24744;DHT22;12844;52.110;5.548;2023-02-01T07:02:34;15.30;51.90
24744;DHT22;12844;52.110;5.548;2023-02-01T07:05:00;15.30;51.90
24744;DHT22;12844;52.110;5.548;2023-02-01T07:07:25;15.30;51.90
24744;DHT22;12844;52.110;5.548;2023-02-01T07:09:51;15.30;51.80
24744;DHT22;12844;52.110;5.548;2023-02-01T07:12:16;15.30;51.90
24744;DHT22;12844;52.110;5.548;2023-02-01T07:14:43;15.30;51.90
24744;DHT22;12844;52.110;5.548;2023-02-01T07:17:09;15.30;51.90
24744;DHT22;12844;52.110;5.548;2023-02-01T07:19:35;15.30;51.90
24744;DHT22;12844;52.110;5.548;2023-02-01T07:22:00;15.30;51.80
24744;DHT22;12844;52.110;5.548;2023-02-01T07:24:26;15.30;51.90
24744;DHT22;12844;52.110;5.548;2023-02-01T07:26:51;15.30;51.90
24744;DHT22;12844;52.110;5.548;2023-02-01T07:29:18;15.30;51.80
24744;DHT22;12844;52.110;5.548;2023-02-01T07:31:44;15.30;51.80
24744;DHT22;12844;52.110;5.548;2023-02-01T07:34:09;15.30;51.80
24744;DHT22;12844;52.110;5.548;2023-02-01T07:36:35;15.20;51.70
24744;DHT22;12844;52.110;5.548;2023-02-01T07:39:04;15.30;51.90
24744;DHT22;12844;52.110;5.548;2023-02-01T07:41:30;15.40;51.90
24744;DHT22;12844;52.110;5.548;2023-02-01T07:43:56;15.60;51.90
24744;DHT22;12844;52.110;5.548;2023-02-01T07:46:22;15.70;51.70
24744;DHT22;12844;52.110;5.548;2023-02-01T07:48:48;15.90;52.00
24744;DHT22;12844;52.110;5.548;2023-02-01T07:51:15;16.00;52.00
24744;DHT22;12844;52.110;5.548;2023-02-01T07:53:41;16.20;51.90
24744;DHT22;12844;52.110;5.548;2023-02-01T07:56:19;16.30;51.70
24744;DHT22;12844;52.110;5.548;2023-02-01T07:58:49;16.30;51.60
24744;DHT22;12844;52.110;5.548;2023-02-01T08:01:17;16.50;51.90
24744;DHT22;12844;52.110;5.548;2023-02-01T08:04:07;16.70;51.60
24744;DHT22;12844;52.110;5.548;2023-02-01T08:06:33;16.80;51.20
24744;DHT22;12844;52.110;5.548;2023-02-01T08:08:59;16.70;51.60
24744;DHT22;12844;52.110;5.548;2023-02-01T08:11:25;16.60;51.60
24744;DHT22;12844;52.110;5.548;2023-02-01T08:13:52;16.70;51.80
24744;DHT22;12844;52.110;5.548;2023-02-01T08:16:18;16.60;51.90
24744;DHT22;12844;52.110;5.548;2023-02-01T08:18:45;16.70;52.00
24744;DHT22;12844;52.110;5.548;2023-02-01T08:21:18;16.70;52.40
24744;DHT22;12844;52.110;5.548;2023-02-01T08:23:44;16.60;52.20
24744;DHT22;12844;52.110;5.548;2023-02-01T08:28:42;16.80;51.90
24744;DHT22;12844;52.110;5.548;2023-02-01T08:31:11;16.90;51.90
24744;DHT22;12844;52.110;5.548;2023-02-01T08:33:37;16.90;52.00
24744;DHT22;12844;52.110;5.548;2023-02-01T08:36:07;16.80;52.20
24744;DHT22;12844;52.110;5.548;2023-02-01T08:38:35;16.80;52.10
24744;DHT22;12844;52.110;5.548;2023-02-01T08:41:10;17.00;52.00
24744;DHT22;12844;52.110;5.548;2023-02-01T08:43:36;17.00;51.80
24744;DHT22;12844;52.110;5.548;2023-02-01T08:56:23;16.70;53.10
24744;DHT22;12844;52.110;5.548;2023-02-01T08:58:49;16.80;52.90
24744;DHT22;12844;52.110;5.548;2023-02-01T09:01:16;17.10;52.60
24744;DHT22;12844;52.110;5.548;2023-02-01T09:03:42;17.20;52.30
24744;DHT22;12844;52.110;5.548;2023-02-01T09:06:10;17.20;52.10
24744;DHT22;12844;52.110;5.548;2023-02-01T09:08:37;17.30;52.10
24744;DHT22;12844;52.110;5.548;2023-02-01T09:11:08;17.20;51.70
24744;DHT22;12844;52.110;5.548;2023-02-01T09:13:36;17.20;51.90
24744;DHT22;12844;52.110;5.548;2023-02-01T09:16:02;17.20;52.00
24744;DHT22;12844;52.110;5.548;2023-02-01T09:18:27;17.20;51.90
24744;DHT22;12844;52.110;5.548;2023-02-01T09:20:53;17.20;51.80
24744;DHT22;12844;52.110;5.548;2023-02-01T09:23:18;17.20;51.70
24744;DHT22;12844;52.110;5.548;2023-02-01T09:25:46;17.30;51.70
24744;DHT22;12844;52.110;5.548;2023-02-01T09:28:11;17.40;51.60
24744;DHT22;12844;52.110;5.548;2023-02-01T09:30:37;17.30;51.30
24744;DHT22;12844;52.110;5.548;2023-02-01T09:33:03;17.30;51.60
24744;DHT22;12844;52.110;5.548;2023-02-01T09:35:29;17.40;51.70
24744;DHT22;12844;52.110;5.548;2023-02-01T09:37:55;17.30;51.70
24744;DHT22;12844;52.110;5.548;2023-02-01T09:40:21;17.30;51.60
24744;DHT22;12844;52.110;5.548;2023-02-01T09:48:17;17.20;51.70
24744;DHT22;12844;52.110;5.548;2023-02-01T09:50:53;17.10;51.60
24744;DHT22;12844;52.110;5.548;2023-02-01T09:53:30;17.10;51.70
24744;DHT22;12844;52.110;5.548;2023-02-01T09:56:18;17.00;51.70
24744;DHT22;12844;52.110;5.548;2023-02-01T09:58:49;17.00;51.70
24744;DHT22;12844;52.110;5.548;2023-02-01T10:01:21;17.00;51.80
24744;DHT22;12844;52.110;5.548;2023-02-01T10:03:49;17.00;51.80
24744;DHT22;12844;52.110;5.548;2023-02-01T10:06:27;16.90;51.80
24744;DHT22;12844;52.110;5.548;2023-02-01T10:12:15;16.90;51.80
24744;DHT22;12844;52.110;5.548;2023-02-01T10:17:51;16.70;52.40
24744;DHT22;12844;52.110;5.548;2023-02-01T10:28:45;16.80;52.60
24744;DHT22;12844;52.110;5.548;2023-02-01T10:31:12;17.10;52.40
24744;DHT22;12844;52.110;5.548;2023-02-01T10:33:43;17.10;52.20
24744;DHT22;12844;52.110;5.548;2023-02-01T10:38:38;17.50;51.90
24744;DHT22;12844;52.110;5.548;2023-02-01T10:41:11;17.50;51.90
24744;DHT22;12844;52.110;5.548;2023-02-01T10:43:37;17.60;51.80
24744;DHT22;12844;52.110;5.548;2023-02-01T10:46:04;17.50;51.90
24744;DHT22;12844;52.110;5.548;2023-02-01T10:48:31;17.40;52.00
24744;DHT22;12844;52.110;5.548;2023-02-01T10:51:09;17.50;51.90
24744;DHT22;12844;52.110;5.548;2023-02-01T10:56:13;17.50;52.20
24744;DHT22;12844;52.110;5.548;2023-02-01T10:58:46;17.40;52.50
24744;DHT22;12844;52.110;5.548;2023-02-01T11:01:18;17.50;53.00
24744;DHT22;12844;52.110;5.548;2023-02-01T11:03:52;17.60;52.50
24744;DHT22;12844;52.110;5.548;2023-02-01T11:06:38;17.70;52.20
24744;DHT22;12844;52.110;5.548;2023-02-01T11:11:33;17.80;52.10
24744;DHT22;12844;52.110;5.548;2023-02-01T11:14:39;18.00;52.00
24744;DHT22;12844;52.110;5.548;2023-02-01T11:19:45;18.20;52.00
24744;DHT22;12844;52.110;5.548;2023-02-01T11:22:12;18.40;51.80
24744;DHT22;12844;52.110;5.548;2023-02-01T11:24:38;18.50;51.50
24744;DHT22;12844;52.110;5.548;2023-02-01T11:27:12;18.50;51.30
24744;DHT22;12844;52.110;5.548;2023-02-01T11:29:42;18.40;51.70
24744;DHT22;12844;52.110;5.548;2023-02-01T11:32:10;18.30;51.70
24744;DHT22;12844;52.110;5.548;2023-02-01T11:34:49;18.60;51.50
24744;DHT22;12844;52.110;5.548;2023-02-01T11:37:33;18.30;51.40
24744;DHT22;12844;52.110;5.548;2023-02-01T11:40:03;18.10;51.70
24744;DHT22;12844;52.110;5.548;2023-02-01T11:42:29;18.00;52.00
24744;DHT22;12844;52.110;5.548;2023-02-01T11:45:20;18.00;52.10
24744;DHT22;12844;52.110;5.548;2023-02-01T11:47:46;17.90;52.10
24744;DHT22;12844;52.110;5.548;2023-02-01T11:50:19;17.90;52.20
24744;DHT22;12844;52.110;5.548;2023-02-01T11:55:36;18.00;52.10
24744;DHT22;12844;52.110;5.548;2023-02-01T12:00:51;17.80;52.10
24744;DHT22;12844;52.110;5.548;2023-02-01T12:11:59;17.70;51.90
24744;DHT22;12844;52.110;5.548;2023-02-01T12:14:50;17.70;52.00
24744;DHT22;12844;52.110;5.548;2023-02-01T12:17:32;17.70;52.00
24744;DHT22;12844;52.110;5.548;2023-02-01T12:34:09;17.60;52.00
24744;DHT22;12844;52.110;5.548;2023-02-01T12:39:31;17.50;51.70
24744;DHT22;12844;52.110;5.548;2023-02-01T12:42:02;17.60;51.80
24744;DHT22;12844;52.110;5.548;2023-02-01T12:44:50;17.60;51.70
24744;DHT22;12844;52.110;5.548;2023-02-01T12:47:35;17.70;51.70
24744;DHT22;12844;52.110;5.548;2023-02-01T12:52:46;17.60;52.30
24744;DHT22;12844;52.110;5.548;2023-02-01T12:55:24;17.60;51.70
24744;DHT22;12844;52.110;5.548;2023-02-01T12:57:58;17.60;51.80
24744;DHT22;12844;52.110;5.548;2023-02-01T13:00:30;17.60;51.70
24744;DHT22;12844;52.110;5.548;2023-02-01T13:06:19;17.60;51.90
24744;DHT22;12844;52.110;5.548;2023-02-01T13:09:09;17.50;51.90
24744;DHT22;12844;52.110;5.548;2023-02-01T13:11:42;17.60;52.00
24744;DHT22;12844;52.110;5.548;2023-02-01T13:17:06;17.40;51.90
24744;DHT22;12844;52.110;5.548;2023-02-01T13:22:28;17.30;51.90
24744;DHT22;12844;52.110;5.548;2023-02-01T13:25:04;17.30;51.90
24744;DHT22;12844;52.110;5.548;2023-02-01T13:27:33;17.20;51.90
24744;DHT22;12844;52.110;5.548;2023-02-01T13:35:40;17.10;51.90
24744;DHT22;12844;52.110;5.548;2023-02-01T13:41:24;17.10;51.80
24744;DHT22;12844;52.110;5.548;2023-02-01T13:43:54;17.10;51.90
24744;DHT22;12844;52.110;5.548;2023-02-01T13:46:21;17.10;51.80
24744;DHT22;12844;52.110;5.548;2023-02-01T13:48:49;17.00;51.80
24744;DHT22;12844;52.110;5.548;2023-02-01T13:51:15;17.00;51.70
24744;DHT22;12844;52.110;5.548;2023-02-01T13:53:48;17.00;51.70
24744;DHT22;12844;52.110;5.548;2023-02-01T13:56:17;17.00;51.80
24744;DHT22;12844;52.110;5.548;2023-02-01T13:58:45;17.00;51.80
24744;DHT22;12844;52.110;5.548;2023-02-01T14:04:00;17.00;51.70
24744;DHT22;12844;52.110;5.548;2023-02-01T14:11:46;16.90;51.70
24744;DHT22;12844;52.110;5.548;2023-02-01T14:19:23;16.90;51.80
24744;DHT22;12844;52.110;5.548;2023-02-01T14:21:51;16.90;51.80
24744;DHT22;12844;52.110;5.548;2023-02-01T14:24:30;16.90;51.80
24744;DHT22;12844;52.110;5.548;2023-02-01T14:27:01;16.80;51.60
24744;DHT22;12844;52.110;5.548;2023-02-01T14:37:07;16.80;51.70
24744;DHT22;12844;52.110;5.548;2023-02-01T14:39:58;16.80;51.70
24744;DHT22;12844;52.110;5.548;2023-02-01T14:55:43;16.60;51.70
24744;DHT22;12844;52.110;5.548;2023-02-01T15:01:02;16.60;51.70
24744;DHT22;12844;52.110;5.548;2023-02-01T15:06:41;16.60;51.70
24744;DHT22;12844;52.110;5.548;2023-02-01T15:09:20;16.60;51.80
24744;DHT22;12844;52.110;5.548;2023-02-01T15:14:19;16.60;51.80
24744;DHT22;12844;52.110;5.548;2023-02-01T15:16:45;16.50;51.70
24744;DHT22;12844;52.110;5.548;2023-02-01T15:19:15;16.50;51.70
24744;DHT22;12844;52.110;5.548;2023-02-01T15:21:46;16.50;51.70
24744;DHT22;12844;52.110;5.548;2023-02-01T15:24:14;16.60;51.70
24744;DHT22;12844;52.110;5.548;2023-02-01T15:26:40;16.60;51.70
24744;DHT22;12844;52.110;5.548;2023-02-01T15:29:10;16.50;51.70
24744;DHT22;12844;52.110;5.548;2023-02-01T15:31:45;16.50;51.60
24744;DHT22;12844;52.110;5.548;2023-02-01T15:34:11;16.50;51.70
24744;DHT22;12844;52.110;5.548;2023-02-01T15:36:38;16.50;51.60
24744;DHT22;12844;52.110;5.548;2023-02-01T15:39:22;16.50;51.60
24744;DHT22;12844;52.110;5.548;2023-02-01T15:41:59;16.50;51.60
24744;DHT22;12844;52.110;5.548;2023-02-01T15:44:39;16.50;51.70
24744;DHT22;12844;52.110;5.548;2023-02-01T15:47:18;16.50;51.70
24744;DHT22;12844;52.110;5.548;2023-02-01T15:49:49;16.50;51.70
24744;DHT22;12844;52.110;5.548;2023-02-01T15:52:46;16.50;51.70
24744;DHT22;12844;52.110;5.548;2023-02-01T15:57:46;16.50;51.70
24744;DHT22;12844;52.110;5.548;2023-02-01T16:00:33;16.40;51.70
24744;DHT22;12844;52.110;5.548;2023-02-01T16:03:06;16.40;51.60
24744;DHT22;12844;52.110;5.548;2023-02-01T16:05:58;16.40;51.70
24744;DHT22;12844;52.110;5.548;2023-02-01T16:08:26;16.40;51.70
24744;DHT22;12844;52.110;5.548;2023-02-01T16:10:54;16.40;51.70
24744;DHT22;12844;52.110;5.548;2023-02-01T16:13:20;16.40;51.70
24744;DHT22;12844;52.110;5.548;2023-02-01T16:15:47;16.40;51.70
24744;DHT22;12844;52.110;5.548;2023-02-01T16:18:13;16.40;51.60
24744;DHT22;12844;52.110;5.548;2023-02-01T16:20:41;16.40;51.70
24744;DHT22;12844;52.110;5.548;2023-02-01T16:23:08;16.40;51.70
24744;DHT22;12844;52.110;5.548;2023-02-01T16:25:34;16.30;51.60
24744;DHT22;12844;52.110;5.548;2023-02-01T16:27:59;16.40;51.70
24744;DHT22;12844;52.110;5.548;2023-02-01T16:30:25;16.50;51.70
24744;DHT22;12844;52.110;5.548;2023-02-01T16:32:55;16.50;51.60
24744;DHT22;12844;52.110;5.548;2023-02-01T16:35:32;16.50;51.70
24744;DHT22;12844;52.110;5.548;2023-02-01T16:38:04;16.60;52.00
24744;DHT22;12844;52.110;5.548;2023-02-01T16:40:34;16.80;52.00
24744;DHT22;12844;52.110;5.548;2023-02-01T16:42:59;16.80;51.70
24744;DHT22;12844;52.110;5.548;2023-02-01T16:45:25;16.80;51.90
24744;DHT22;12844;52.110;5.548;2023-02-01T16:47:54;16.90;52.10
24744;DHT22;12844;52.110;5.548;2023-02-01T16:50:24;17.00;52.40
24744;DHT22;12844;52.110;5.548;2023-02-01T16:52:52;17.10;52.30
24744;DHT22;12844;52.110;5.548;2023-02-01T16:55:19;17.10;52.70
24744;DHT22;12844;52.110;5.548;2023-02-01T16:57:46;17.10;52.70
24744;DHT22;12844;52.110;5.548;2023-02-01T17:00:12;17.10;52.70
24744;DHT22;12844;52.110;5.548;2023-02-01T17:02:39;17.10;52.80
24744;DHT22;12844;52.110;5.548;2023-02-01T17:05:08;17.10;53.00
24744;DHT22;12844;52.110;5.548;2023-02-01T17:07:35;17.10;52.90
24744;DHT22;12844;52.110;5.548;2023-02-01T17:10:01;17.10;52.90
24744;DHT22;12844;52.110;5.548;2023-02-01T17:12:29;17.10;53.00
24744;DHT22;12844;52.110;5.548;2023-02-01T17:14:56;17.20;52.90
24744;DHT22;12844;52.110;5.548;2023-02-01T17:17:23;17.20;52.90
24744;DHT22;12844;52.110;5.548;2023-02-01T17:19:51;17.30;52.70
24744;DHT22;12844;52.110;5.548;2023-02-01T17:22:19;17.40;52.60
24744;DHT22;12844;52.110;5.548;2023-02-01T17:24:45;17.30;52.70
24744;DHT22;12844;52.110;5.548;2023-02-01T17:27:11;17.30;53.20
24744;DHT22;12844;52.110;5.548;2023-02-01T17:29:37;17.50;53.20
24744;DHT22;12844;52.110;5.548;2023-02-01T17:32:03;17.60;53.10
24744;DHT22;12844;52.110;5.548;2023-02-01T17:34:28;17.70;53.10
24744;DHT22;12844;52.110;5.548;2023-02-01T17:36:54;17.80;53.00
24744;DHT22;12844;52.110;5.548;2023-02-01T17:39:20;17.80;53.00
24744;DHT22;12844;52.110;5.548;2023-02-01T17:42:04;17.80;53.10
24744;DHT22;12844;52.110;5.548;2023-02-01T17:44:30;17.80;53.10
24744;DHT22;12844;52.110;5.548;2023-02-01T17:46:57;17.80;53.10
24744;DHT22;12844;52.110;5.548;2023-02-01T17:49:24;17.80;53.10
24744;DHT22;12844;52.110;5.548;2023-02-01T17:51:50;17.80;53.10
24744;DHT22;12844;52.110;5.548;2023-02-01T17:54:16;17.90;53.10
24744;DHT22;12844;52.110;5.548;2023-02-01T17:56:44;17.90;52.90
24744;DHT22;12844;52.110;5.548;2023-02-01T17:59:10;17.90;53.00
24744;DHT22;12844;52.110;5.548;2023-02-01T18:01:35;17.90;52.90
24744;DHT22;12844;52.110;5.548;2023-02-01T18:04:02;17.90;52.90
24744;DHT22;12844;52.110;5.548;2023-02-01T18:06:32;17.90;52.90
24744;DHT22;12844;52.110;5.548;2023-02-01T18:08:58;18.00;52.80
24744;DHT22;12844;52.110;5.548;2023-02-01T18:11:24;18.00;52.70
24744;DHT22;12844;52.110;5.548;2023-02-01T18:13:51;18.10;52.40
24744;DHT22;12844;52.110;5.548;2023-02-01T18:16:24;18.00;52.50
24744;DHT22;12844;52.110;5.548;2023-02-01T18:18:50;18.00;53.00
24744;DHT22;12844;52.110;5.548;2023-02-01T18:21:18;18.20;52.80
24744;DHT22;12844;52.110;5.548;2023-02-01T18:23:44;18.20;52.80
24744;DHT22;12844;52.110;5.548;2023-02-01T18:26:15;18.30;52.70
24744;DHT22;12844;52.110;5.548;2023-02-01T18:28:41;18.50;52.50
24744;DHT22;12844;52.110;5.548;2023-02-01T18:31:16;18.40;52.60
24744;DHT22;12844;52.110;5.548;2023-02-01T18:33:45;18.40;53.40
24744;DHT22;12844;52.110;5.548;2023-02-01T18:36:11;18.60;52.70
24744;DHT22;12844;52.110;5.548;2023-02-01T18:38:37;18.60;52.50
24744;DHT22;12844;52.110;5.548;2023-02-01T18:41:03;18.50;52.40
24744;DHT22;12844;52.110;5.548;2023-02-01T18:43:30;18.50;52.70
24744;DHT22;12844;52.110;5.548;2023-02-01T18:45:56;18.50;52.70
24744;DHT22;12844;52.110;5.548;2023-02-01T18:48:21;18.50;52.60
24744;DHT22;12844;52.110;5.548;2023-02-01T18:50:47;18.70;52.30
24744;DHT22;12844;52.110;5.548;2023-02-01T18:53:18;18.60;52.00
24744;DHT22;12844;52.110;5.548;2023-02-01T18:55:47;18.50;52.10
24744;DHT22;12844;52.110;5.548;2023-02-01T18:58:15;18.50;52.20
24744;DHT22;12844;52.110;5.548;2023-02-01T19:00:41;18.50;52.20